sensor_id;sensor_type;location;lat;lon;timestamp;P1;durP1;ratioP1;P2;durP2;ratioP2
57339;SDS011;43174;50.930;18.170;2023-07-13T00:08:04;8.10;;;7.60;;
57339;SDS011;43174;50.930;18.170;2023-07-13T00:17:51;8.40;;;8.00;;
57339;SDS011;43174;50.930;18.170;2023-07-13T00:27:34;7.70;;;7.30;;
57339;SDS011;43174;50.930;18.170;2023-07-13T00:34:51;9.30;;;8.40;;
57339;SDS011;43174;50.930;18.170;2023-07-13T00:44:33;7.50;;;7.20;;
57339;SDS011;43174;50.930;18.170;2023-07-13T00:54:19;6.80;;;6.50;;
57339;SDS011;43174;50.930;18.170;2023-07-13T01:04:02;10.80;;;5.80;;
57339;SDS011;43174;50.930;18.170;2023-07-13T01:13:45;5.90;;;5.60;;
57339;SDS011;43174;50.930;18.170;2023-07-13T01:23:27;6.20;;;5.80;;
57339;SDS011;43174;50.930;18.170;2023-07-13T01:28:20;9.30;;;8.40;;
57339;SDS011;43174;50.930;18.170;2023-07-13T01:38:04;7.60;;;7.20;;
57339;SDS011;43174;50.930;18.170;2023-07-13T01:47:45;7.50;;;7.20;;
57339;SDS011;43174;50.930;18.170;2023-07-13T01:57:27;9.60;;;5.30;;
57339;SDS011;43174;50.930;18.170;2023-07-13T02:07:10;6.40;;;6.00;;
57339;SDS011;43174;50.930;18.170;2023-07-13T02:16:51;7.80;;;5.30;;
57339;SDS011;43174;50.930;18.170;2023-07-13T02:26:33;5.90;;;5.60;;
57339;SDS011;43174;50.930;18.170;2023-07-13T02:36:15;8.50;;;7.90;;
57339;SDS011;43174;50.930;18.170;2023-07-13T02:45:58;5.90;;;5.30;;
57339;SDS011;43174;50.930;18.170;2023-07-13T02:55:46;8.20;;;7.60;;
57339;SDS011;43174;50.930;18.170;2023-07-13T03:05:33;4.90;;;4.60;;
57339;SDS011;43174;50.930;18.170;2023-07-13T03:15:15;9.60;;;8.70;;
57339;SDS011;43174;50.930;18.170;2023-07-13T03:24:57;8.70;;;8.00;;
57339;SDS011;43174;50.930;18.170;2023-07-13T03:34:39;13.70;;;7.40;;
57339;SDS011;43174;50.930;18.170;2023-07-13T03:37:05;12.20;;;7.10;;
57339;SDS011;43174;50.930;18.170;2023-07-13T03:46:46;6.80;;;6.20;;
57339;SDS011;43174;50.930;18.170;2023-07-13T03:56:29;8.20;;;7.80;;
57339;SDS011;43174;50.930;18.170;2023-07-13T04:06:22;5.60;;;5.10;;
57339;SDS011;43174;50.930;18.170;2023-07-13T04:16:06;13.30;;;7.30;;
57339;SDS011;43174;50.930;18.170;2023-07-13T04:25:48;17.10;;;7.90;;
57339;SDS011;43174;50.930;18.170;2023-07-13T04:35:31;7.00;;;6.40;;
57339;SDS011;43174;50.930;18.170;2023-07-13T04:45:14;7.40;;;7.00;;
57339;SDS011;43174;50.930;18.170;2023-07-13T04:54:55;9.00;;;8.20;;
57339;SDS011;43174;50.930;18.170;2023-07-13T05:04:37;9.30;;;8.60;;
57339;SDS011;43174;50.930;18.170;2023-07-13T05:14:19;8.90;;;7.10;;
57339;SDS011;43174;50.930;18.170;2023-07-13T05:24:01;8.00;;;7.60;;
57339;SDS011;43174;50.930;18.170;2023-07-13T05:33:43;9.50;;;9.00;;
57339;SDS011;43174;50.930;18.170;2023-07-13T05:43:25;8.70;;;7.80;;
57339;SDS011;43174;50.930;18.170;2023-07-13T05:53:07;9.40;;;8.80;;
57339;SDS011;43174;50.930;18.170;2023-07-13T05:55:33;9.10;;;8.20;;
57339;SDS011;43174;50.930;18.170;2023-07-13T06:05:17;6.60;;;6.10;;
57339;SDS011;43174;50.930;18.170;2023-07-13T06:15:03;7.30;;;6.70;;
57339;SDS011;43174;50.930;18.170;2023-07-13T06:24:45;9.20;;;5.00;;
57339;SDS011;43174;50.930;18.170;2023-07-13T06:34:27;3.90;;;3.70;;
57339;SDS011;43174;50.930;18.170;2023-07-13T06:39:18;6.30;;;2.70;;
57339;SDS011;43174;50.930;18.170;2023-07-13T06:49:00;1.70;;;1.60;;
57339;SDS011;43174;50.930;18.170;2023-07-13T06:58:43;6.50;;;4.20;;
57339;SDS011;43174;50.930;18.170;2023-07-13T07:08:24;1.70;;;1.70;;
57339;SDS011;43174;50.930;18.170;2023-07-13T07:18:10;1.40;;;1.30;;
57339;SDS011;43174;50.930;18.170;2023-07-13T07:27:52;1.40;;;1.30;;
57339;SDS011;43174;50.930;18.170;2023-07-13T07:37:34;1.40;;;1.30;;
57339;SDS011;43174;50.930;18.170;2023-07-13T07:47:16;1.60;;;1.50;;
57339;SDS011;43174;50.930;18.170;2023-07-13T07:56:58;2.00;;;1.60;;
57339;SDS011;43174;50.930;18.170;2023-07-13T08:06:41;1.30;;;0.90;;
57339;SDS011;43174;50.930;18.170;2023-07-13T08:16:24;8.20;;;2.90;;
57339;SDS011;43174;50.930;18.170;2023-07-13T08:26:07;2.20;;;2.10;;
57339;SDS011;43174;50.930;18.170;2023-07-13T08:35:51;2.10;;;2.00;;
57339;SDS011;43174;50.930;18.170;2023-07-13T08:45:45;1.90;;;1.70;;
57339;SDS011;43174;50.930;18.170;2023-07-13T08:55:31;1.50;;;1.40;;
57339;SDS011;43174;50.930;18.170;2023-07-13T09:15:14;22.60;;;4.50;;
57339;SDS011;43174;50.930;18.170;2023-07-13T09:25:02;2.80;;;2.60;;
57339;SDS011;43174;50.930;18.170;2023-07-13T09:34:50;4.70;;;4.20;;
57339;SDS011;43174;50.930;18.170;2023-07-13T09:39:43;5.90;;;5.40;;
57339;SDS011;43174;50.930;18.170;2023-07-13T09:49:27;6.40;;;6.10;;
57339;SDS011;43174;50.930;18.170;2023-07-13T09:59:18;4.80;;;4.50;;
57339;SDS011;43174;50.930;18.170;2023-07-13T10:09:06;3.70;;;3.50;;
57339;SDS011;43174;50.930;18.170;2023-07-13T10:18:55;25.90;;;4.80;;
57339;SDS011;43174;50.930;18.170;2023-07-13T10:28:39;4.00;;;3.70;;
57339;SDS011;43174;50.930;18.170;2023-07-13T10:38:23;2.60;;;2.30;;
57339;SDS011;43174;50.930;18.170;2023-07-13T10:48:06;2.50;;;2.30;;
57339;SDS011;43174;50.930;18.170;2023-07-13T10:57:52;2.10;;;1.40;;
57339;SDS011;43174;50.930;18.170;2023-07-13T11:07:51;1.60;;;1.50;;
57339;SDS011;43174;50.930;18.170;2023-07-13T11:17:37;4.40;;;4.20;;
57339;SDS011;43174;50.930;18.170;2023-07-13T11:28:03;1.40;;;1.30;;
57339;SDS011;43174;50.930;18.170;2023-07-13T11:37:28;0.90;;;0.90;;
57339;SDS011;43174;50.930;18.170;2023-07-13T11:47:14;4.90;;;4.70;;
57339;SDS011;43174;50.930;18.170;2023-07-13T11:57:10;0.60;;;0.60;;
57339;SDS011;43174;50.930;18.170;2023-07-13T12:06:55;1.70;;;1.60;;
57339;SDS011;43174;50.930;18.170;2023-07-13T12:16:42;3.50;;;1.10;;
57339;SDS011;43174;50.930;18.170;2023-07-13T12:26:29;1.00;;;0.90;;
57339;SDS011;43174;50.930;18.170;2023-07-13T12:36:12;1.30;;;1.30;;
57339;SDS011;43174;50.930;18.170;2023-07-13T12:41:05;4.70;;;2.30;;
57339;SDS011;43174;50.930;18.170;2023-07-13T12:50:54;1.30;;;0.90;;
57339;SDS011;43174;50.930;18.170;2023-07-13T13:00:37;1.30;;;0.80;;
57339;SDS011;43174;50.930;18.170;2023-07-13T13:10:20;1.30;;;1.20;;
57339;SDS011;43174;50.930;18.170;2023-07-13T13:20:17;0.70;;;0.70;;
57339;SDS011;43174;50.930;18.170;2023-07-13T13:29:59;0.60;;;0.60;;
57339;SDS011;43174;50.930;18.170;2023-07-13T13:39:43;0.60;;;0.50;;
57339;SDS011;43174;50.930;18.170;2023-07-13T13:49:27;1.50;;;0.60;;
57339;SDS011;43174;50.930;18.170;2023-07-13T13:59:10;11.00;;;0.50;;
57339;SDS011;43174;50.930;18.170;2023-07-13T14:08:54;2.30;;;0.80;;
57339;SDS011;43174;50.930;18.170;2023-07-13T14:18:40;0.60;;;0.60;;
57339;SDS011;43174;50.930;18.170;2023-07-13T14:28:25;1.70;;;0.90;;
57339;SDS011;43174;50.930;18.170;2023-07-13T14:38:09;0.80;;;0.80;;
57339;SDS011;43174;50.930;18.170;2023-07-13T14:47:54;1.30;;;1.20;;
57339;SDS011;43174;50.930;18.170;2023-07-13T14:57:38;0.70;;;0.60;;
57339;SDS011;43174;50.930;18.170;2023-07-13T15:07:21;1.90;;;1.00;;
57339;SDS011;43174;50.930;18.170;2023-07-13T15:17:04;0.60;;;0.50;;
57339;SDS011;43174;50.930;18.170;2023-07-13T15:26:48;1.70;;;1.20;;
57339;SDS011;43174;50.930;18.170;2023-07-13T15:36:32;0.70;;;0.70;;
57339;SDS011;43174;50.930;18.170;2023-07-13T15:41:25;1.10;;;0.80;;
57339;SDS011;43174;50.930;18.170;2023-07-13T15:51:09;1.60;;;0.60;;
57339;SDS011;43174;50.930;18.170;2023-07-13T16:00:53;0.60;;;0.60;;
57339;SDS011;43174;50.930;18.170;2023-07-13T16:10:36;0.40;;;0.40;;
57339;SDS011;43174;50.930;18.170;2023-07-13T16:20:23;1.10;;;0.70;;
57339;SDS011;43174;50.930;18.170;2023-07-13T16:30:16;2.00;;;1.20;;
57339;SDS011;43174;50.930;18.170;2023-07-13T16:40:00;0.70;;;0.70;;
57339;SDS011;43174;50.930;18.170;2023-07-13T16:49:44;1.70;;;1.40;;
57339;SDS011;43174;50.930;18.170;2023-07-13T16:59:30;2.60;;;1.30;;
57339;SDS011;43174;50.930;18.170;2023-07-13T17:09:18;2.30;;;2.10;;
57339;SDS011;43174;50.930;18.170;2023-07-13T17:19:01;1.60;;;1.50;;
57339;SDS011;43174;50.930;18.170;2023-07-13T17:28:44;5.60;;;1.60;;
57339;SDS011;43174;50.930;18.170;2023-07-13T17:38:35;1.40;;;1.30;;
57339;SDS011;43174;50.930;18.170;2023-07-13T17:48:22;1.10;;;1.00;;
57339;SDS011;43174;50.930;18.170;2023-07-13T17:58:06;1.00;;;1.00;;
57339;SDS011;43174;50.930;18.170;2023-07-13T18:07:54;2.60;;;1.40;;
57339;SDS011;43174;50.930;18.170;2023-07-13T18:17:45;1.30;;;1.30;;
57339;SDS011;43174;50.930;18.170;2023-07-13T18:27:29;6.90;;;6.40;;
57339;SDS011;43174;50.930;18.170;2023-07-13T18:37:18;19.60;;;14.20;;
57339;SDS011;43174;50.930;18.170;2023-07-13T18:42:09;3.50;;;2.60;;
57339;SDS011;43174;50.930;18.170;2023-07-13T18:51:52;9.20;;;8.40;;
57339;SDS011;43174;50.930;18.170;2023-07-13T19:01:35;7.70;;;2.40;;
57339;SDS011;43174;50.930;18.170;2023-07-13T19:11:20;4.20;;;2.60;;
57339;SDS011;43174;50.930;18.170;2023-07-13T19:21:09;2.30;;;2.20;;
57339;SDS011;43174;50.930;18.170;2023-07-13T19:30:56;3.90;;;2.90;;
57339;SDS011;43174;50.930;18.170;2023-07-13T19:40:39;3.60;;;3.40;;
57339;SDS011;43174;50.930;18.170;2023-07-13T19:50:24;2.50;;;2.40;;
57339;SDS011;43174;50.930;18.170;2023-07-13T20:00:12;3.10;;;2.90;;
57339;SDS011;43174;50.930;18.170;2023-07-13T20:09:54;3.00;;;2.80;;
57339;SDS011;43174;50.930;18.170;2023-07-13T20:19:37;7.10;;;2.60;;
57339;SDS011;43174;50.930;18.170;2023-07-13T20:29:20;2.80;;;2.70;;
57339;SDS011;43174;50.930;18.170;2023-07-13T20:39:03;2.10;;;2.10;;
57339;SDS011;43174;50.930;18.170;2023-07-13T20:48:47;4.70;;;4.30;;
57339;SDS011;43174;50.930;18.170;2023-07-13T20:58:29;4.20;;;4.00;;
57339;SDS011;43174;50.930;18.170;2023-07-13T21:08:13;3.20;;;3.10;;
57339;SDS011;43174;50.930;18.170;2023-07-13T21:17:58;1.70;;;1.60;;
57339;SDS011;43174;50.930;18.170;2023-07-13T21:27:41;4.50;;;2.00;;
57339;SDS011;43174;50.930;18.170;2023-07-13T21:37:28;1.30;;;1.00;;
57339;SDS011;43174;50.930;18.170;2023-07-13T21:42:20;1.50;;;1.30;;
57339;SDS011;43174;50.930;18.170;2023-07-13T21:52:10;0.90;;;0.90;;
57339;SDS011;43174;50.930;18.170;2023-07-13T22:01:58;1.30;;;1.20;;
57339;SDS011;43174;50.930;18.170;2023-07-13T22:11:41;2.60;;;2.00;;
57339;SDS011;43174;50.930;18.170;2023-07-13T22:21:24;1.60;;;1.50;;
57339;SDS011;43174;50.930;18.170;2023-07-13T22:31:07;1.50;;;1.40;;
57339;SDS011;43174;50.930;18.170;2023-07-13T22:40:49;1.00;;;0.90;;
57339;SDS011;43174;50.930;18.170;2023-07-13T22:50:34;2.30;;;1.40;;
57339;SDS011;43174;50.930;18.170;2023-07-13T23:00:16;2.30;;;1.40;;
57339;SDS011;43174;50.930;18.170;2023-07-13T23:09:59;1.10;;;1.00;;
57339;SDS011;43174;50.930;18.170;2023-07-13T23:19:41;7.20;;;1.50;;
57339;SDS011;43174;50.930;18.170;2023-07-13T23:29:24;2.30;;;1.80;;
57339;SDS011;43174;50.930;18.170;2023-07-13T23:39:13;2.00;;;1.80;;
57339;SDS011;43174;50.930;18.170;2023-07-13T23:48:57;1.70;;;1.60;;
57339;SDS011;43174;50.930;18.170;2023-07-13T23:58:40;1.60;;;1.50;;
